createdAt,value
2019-05-07T00:01:56.854Z,74.69
2019-05-07T00:07:02.538Z,75.78
2019-05-07T00:12:07.957Z,75.87
2019-05-07T00:17:13.226Z,75.25
2019-05-07T00:22:18.527Z,75.68
2019-05-07T00:27:23.854Z,76.05
2019-05-07T00:32:29.494Z,76.35
2019-05-07T00:37:42.999Z,76.85
2019-05-07T00:43:05.854Z,76.79
2019-05-07T00:48:12.657Z,76.74
2019-05-07T00:53:18.206Z,76.69
2019-05-07T00:58:26.767Z,76.70
2019-05-07T01:03:32.778Z,76.95
2019-05-07T01:08:37.911Z,77.28
2019-05-07T01:13:43.585Z,77.22
2019-05-07T01:18:48.903Z,77.81
2019-05-07T01:23:55.123Z,77.61
2019-05-07T01:29:02.846Z,77.54
2019-05-07T01:34:27.024Z,77.17
2019-05-07T01:39:32.897Z,77.33
2019-05-07T01:44:38.234Z,77.78
2019-05-07T01:49:43.582Z,78.13
2019-05-07T01:54:48.862Z,78.56
2019-05-07T01:59:54.157Z,78.54
2019-05-07T02:05:05.921Z,78.73
2019-05-07T02:10:32.137Z,78.97
2019-05-07T02:15:37.673Z,79.14
2019-05-07T02:20:43.247Z,79.57
2019-05-07T02:25:48.475Z,79.48
2019-05-07T02:30:53.740Z,79.34
2019-05-07T02:35:59.136Z,79.12
2019-05-07T02:41:09.834Z,79.18
2019-05-07T02:46:30.915Z,81.08
2019-05-07T02:51:36.360Z,81.72
2019-05-07T02:56:43.240Z,81.82
2019-05-07T03:01:48.996Z,82.11
2019-05-07T03:06:54.690Z,82.12
2019-05-07T03:11:59.979Z,82.05
2019-05-07T03:17:05.586Z,82.23
2019-05-07T03:22:14.029Z,82.13
2019-05-07T03:27:17.872Z,81.65
2019-05-07T03:32:36.574Z,81.56
2019-05-07T03:37:38.810Z,81.61
2019-05-07T03:42:45.356Z,82.55
2019-05-07T03:47:56.575Z,82.57
2019-05-07T03:53:02.726Z,82.68
2019-05-07T03:58:08.279Z,82.62
2019-05-07T04:03:18.783Z,82.90
2019-05-07T04:08:23.557Z,82.46
2019-05-07T04:13:29.007Z,82.77
2019-05-07T04:18:34.399Z,83.08
2019-05-07T04:23:39.611Z,82.81
2019-05-07T04:28:54.104Z,82.94
2019-05-07T04:34:03.736Z,82.84
2019-05-07T04:39:09.470Z,83.05
2019-05-07T04:44:14.798Z,83.09
2019-05-07T04:49:20.299Z,83.10
2019-05-07T04:54:25.990Z,82.91
2019-05-07T04:59:33.025Z,82.83
2019-05-07T05:04:39.096Z,82.47
2019-05-07T05:09:44.422Z,82.04
2019-05-07T05:14:49.658Z,81.39
2019-05-07T05:19:56.432Z,81.41
2019-05-07T05:25:12.093Z,81.26
2019-05-07T05:30:26.426Z,80.36
2019-05-07T05:35:32.178Z,79.71
2019-05-07T05:40:37.394Z,78.76
2019-05-07T05:45:44.255Z,77.35
2019-05-07T05:51:07.111Z,77.47
2019-05-07T05:56:19.778Z,77.81
2019-05-07T06:01:53.267Z,76.08
2019-05-07T06:07:10.765Z,76.19
2019-05-07T06:12:42.835Z,74.99
2019-05-07T06:18:02.586Z,75.18
2019-05-07T06:23:23.907Z,74.26
2019-05-07T06:28:29.211Z,73.41
2019-05-07T06:33:34.568Z,72.89
2019-05-07T06:38:48.931Z,72.35
2019-05-07T06:44:02.098Z,71.11
2019-05-07T06:49:08.609Z,71.40
2019-05-07T06:54:14.012Z,69.84
2019-05-07T06:59:34.578Z,67.86
2019-05-07T07:05:02.864Z,69.25
2019-05-07T07:10:33.295Z,68.83
2019-05-07T07:15:38.854Z,67.70
2019-05-07T07:20:45.115Z,66.34
2019-05-07T07:25:52.253Z,64.72
2019-05-07T07:31:19.743Z,64.67
2019-05-07T07:36:26.942Z,65.23
2019-05-07T07:41:38.688Z,64.27
2019-05-07T07:46:43.964Z,65.30
2019-05-07T07:51:49.346Z,64.11
2019-05-07T07:57:13.605Z,63.85
2019-05-07T08:02:42.301Z,64.84
2019-05-07T08:07:47.592Z,64.74
2019-05-07T08:12:53.011Z,64.59
2019-05-07T08:17:58.340Z,63.86
2019-05-07T08:23:03.768Z,64.70
2019-05-07T08:28:09.130Z,64.64
2019-05-07T08:33:19.336Z,63.80
2019-05-07T08:38:24.910Z,63.09
2019-05-07T08:43:32.157Z,61.42
2019-05-07T08:48:42.476Z,60.66
2019-05-07T08:53:52.777Z,60.59
2019-05-07T08:58:58.147Z,60.83
2019-05-07T09:04:03.497Z,57.82
2019-05-07T09:09:13.177Z,55.02
2019-05-07T09:14:18.672Z,54.19
2019-05-07T09:19:25.375Z,55.71
2019-05-07T09:24:33.218Z,56.12
2019-05-07T09:29:56.844Z,55.07
2019-05-07T09:35:02.483Z,54.46
2019-05-07T09:40:08.964Z,56.49
2019-05-07T09:45:14.488Z,55.44
2019-05-07T09:50:22.087Z,55.13
2019-05-07T09:55:27.383Z,54.72
2019-05-07T10:00:32.851Z,53.52
2019-05-07T10:05:39.956Z,53.43
2019-05-07T10:10:50.215Z,54.39
2019-05-07T10:15:54.215Z,54.55
2019-05-07T10:21:00.046Z,54.16
2019-05-07T10:26:05.323Z,54.37
2019-05-07T10:31:10.831Z,53.38
2019-05-07T10:36:16.171Z,53.67
2019-05-07T10:41:22.360Z,51.08
2019-05-07T10:46:56.059Z,50.51
2019-05-07T10:52:02.153Z,50.53
2019-05-07T10:57:07.757Z,51.54
2019-05-07T11:02:18.803Z,50.03
2019-05-07T11:07:24.993Z,46.86
2019-05-07T11:12:31.947Z,47.06
2019-05-07T11:17:47.207Z,48.60
2019-05-07T11:22:52.574Z,48.31
2019-05-07T11:27:59.430Z,47.17
2019-05-07T11:33:04.717Z,48.84
2019-05-07T11:38:18.702Z,49.86
2019-05-07T11:43:27.655Z,48.66
2019-05-07T11:48:37.604Z,46.54
2019-05-07T11:54:02.168Z,46.15
2019-05-07T11:59:07.823Z,45.99
2019-05-07T12:04:14.455Z,46.27
2019-05-07T12:09:21.774Z,46.89
2019-05-07T12:14:31.765Z,48.15
2019-05-07T12:19:35.290Z,47.88
2019-05-07T12:24:41.935Z,45.91
2019-05-07T12:29:47.482Z,46.62
2019-05-07T12:34:58.944Z,45.40
2019-05-07T12:40:05.085Z,45.35
2019-05-07T12:45:12.622Z,45.65
2019-05-07T12:50:18.105Z,44.97
2019-05-07T12:55:35.011Z,44.21
2019-05-07T13:00:55.018Z,43.17
2019-05-07T13:06:02.362Z,42.41
2019-05-07T13:11:07.296Z,39.77
2019-05-07T13:16:12.882Z,40.40
2019-05-07T13:25:11.973Z,40.40
2019-05-07T13:30:17.531Z,39.58
2019-05-07T13:35:22.809Z,40.43
2019-05-07T13:40:34.428Z,41.42
2019-05-07T13:46:02.707Z,41.75
2019-05-07T13:51:08.257Z,41.72
2019-05-07T13:56:13.564Z,42.12
2019-05-07T14:01:37.766Z,41.40
2019-05-07T14:06:43.351Z,42.73
2019-05-07T14:11:49.010Z,41.83
2019-05-07T14:16:54.281Z,40.56
2019-05-07T14:21:59.501Z,41.72
2019-05-07T14:27:04.857Z,41.02
2019-05-07T14:32:29.138Z,40.06
2019-05-07T14:37:37.874Z,38.65
2019-05-07T14:42:48.685Z,39.51
2019-05-07T14:47:54.960Z,34.94
2019-05-07T14:53:02.555Z,36.27
2019-05-07T14:58:07.748Z,36.91
2019-05-07T15:03:13.269Z,37.94
2019-05-07T15:08:18.765Z,36.17
2019-05-07T15:13:24.161Z,36.97
2019-05-07T15:18:48.757Z,37.36
2019-05-07T15:23:56.224Z,37.65
2019-05-07T15:29:07.158Z,36.94
2019-05-07T15:34:12.653Z,37.17
2019-05-07T15:39:17.952Z,36.13
2019-05-07T15:44:23.159Z,36.56
2019-05-07T15:49:28.970Z,36.89
2019-05-07T15:54:34.188Z,37.08
2019-05-07T15:59:39.486Z,35.42
2019-05-07T16:04:45.387Z,35.00
2019-05-07T16:09:52.618Z,36.25
2019-05-07T16:14:58.092Z,36.88
2019-05-07T16:20:03.581Z,36.35
2019-05-07T16:25:09.078Z,36.80
2019-05-07T16:30:15.083Z,37.40
2019-05-07T16:35:22.631Z,36.91
2019-05-07T16:40:27.719Z,38.47
2019-05-07T16:45:33.054Z,38.14
2019-05-07T16:50:38.496Z,38.93
2019-05-07T16:55:43.825Z,37.87
2019-05-07T17:00:52.769Z,38.05
2019-05-07T17:05:58.192Z,38.68
2019-05-07T17:11:03.573Z,38.97
2019-05-07T17:16:12.210Z,40.41
2019-05-07T17:21:17.023Z,40.54
2019-05-07T17:26:23.742Z,41.39
2019-05-07T17:31:28.963Z,41.43
2019-05-07T17:36:34.405Z,41.72
2019-05-07T17:41:40.272Z,41.35
2019-05-07T17:46:46.228Z,41.62
2019-05-07T17:51:52.727Z,42.84
2019-05-07T17:56:58.056Z,45.64
2019-05-07T18:02:19.342Z,45.73
2019-05-07T18:07:25.026Z,46.90
2019-05-07T18:12:32.041Z,47.76
2019-05-07T18:18:03.068Z,48.08
2019-05-07T18:23:10.645Z,48.93
2019-05-07T18:28:16.157Z,49.25
2019-05-07T18:33:42.503Z,49.36
2019-05-07T18:38:48.144Z,49.30
2019-05-07T18:43:54.736Z,50.88
2019-05-07T18:49:00.242Z,52.14
2019-05-07T18:54:05.958Z,53.09
2019-05-07T18:59:12.011Z,53.19
2019-05-07T19:04:17.991Z,53.11
2019-05-07T19:09:23.660Z,54.61
2019-05-07T19:14:29.079Z,55.63
2019-05-07T19:19:34.893Z,56.06
2019-05-07T19:24:45.247Z,56.88
2019-05-07T19:29:48.268Z,57.27
2019-05-07T19:34:55.087Z,57.71
2019-05-07T19:40:02.024Z,59.00
2019-05-07T19:45:12.805Z,58.90
2019-05-07T19:50:19.518Z,58.79
2019-05-07T19:55:24.955Z,58.28
2019-05-07T20:00:32.831Z,58.91
2019-05-07T20:05:39.381Z,59.46
2019-05-07T20:10:58.325Z,59.55
2019-05-07T20:16:13.864Z,60.46
2019-05-07T20:21:22.648Z,60.15
2019-05-07T20:26:27.441Z,60.67
2019-05-07T20:31:33.841Z,61.04
2019-05-07T20:36:40.104Z,60.66
2019-05-07T20:41:46.563Z,61.43
2019-05-07T20:46:53.603Z,61.65
2019-05-07T20:51:59.713Z,62.40
2019-05-07T20:57:08.305Z,62.31
2019-05-07T21:02:16.325Z,62.42
2019-05-07T21:07:22.220Z,62.01
2019-05-07T21:12:28.048Z,62.67
2019-05-07T21:17:35.108Z,62.35
2019-05-07T21:22:42.446Z,62.78
2019-05-07T21:27:48.318Z,62.43
2019-05-07T21:32:54.635Z,62.83
2019-05-07T21:38:01.243Z,63.42
2019-05-07T21:43:07.206Z,63.71
2019-05-07T21:48:13.822Z,64.23
2019-05-07T21:53:25.542Z,64.83
2019-05-07T21:58:40.994Z,65.28
2019-05-07T22:03:56.113Z,65.31
2019-05-07T22:09:02.581Z,65.61
2019-05-07T22:14:10.049Z,65.58
2019-05-07T22:19:16.239Z,65.88
2019-05-07T22:24:22.584Z,66.02
2019-05-07T22:29:28.475Z,66.21
2019-05-07T22:34:56.639Z,66.36
2019-05-07T22:40:04.205Z,66.34
2019-05-07T22:45:12.104Z,67.15
2019-05-07T22:50:18.080Z,67.15
2019-05-07T22:55:23.458Z,67.88
2019-05-07T23:00:33.568Z,67.89
2019-05-07T23:05:39.267Z,67.97
2019-05-07T23:10:44.757Z,68.57
2019-05-07T23:15:51.653Z,68.63
2019-05-07T23:20:57.284Z,69.49
2019-05-07T23:26:02.957Z,71.73
2019-05-07T23:31:08.262Z,71.97
2019-05-07T23:36:14.835Z,72.62
2019-05-07T23:41:42.152Z,71.66
2019-05-07T23:46:51.844Z,72.61
2019-05-07T23:51:57.043Z,72.96
2019-05-07T23:57:07.110Z,73.49
